createdAt,value
2022-09-07T00:00:07.861Z,1.08
2022-09-07T00:02:34.967Z,0.95
2022-09-07T00:05:02.012Z,0.60
2022-09-07T00:07:29.702Z,1.13
2022-09-07T00:09:56.851Z,0.97
2022-09-07T00:12:23.909Z,0.82
2022-09-07T00:14:51.124Z,1.00
2022-09-07T00:17:18.357Z,0.93
2022-09-07T00:19:45.404Z,0.90
2022-09-07T00:22:12.509Z,0.77
2022-09-07T00:24:39.581Z,1.00
2022-09-07T00:27:06.669Z,0.88
2022-09-07T00:32:02.150Z,1.13
2022-09-07T00:34:29.264Z,0.80
2022-09-07T00:36:56.404Z,1.23
2022-09-07T00:39:23.345Z,1.00
2022-09-07T00:41:50.418Z,1.00
2022-09-07T00:44:42.578Z,1.00
2022-09-07T00:47:28.575Z,1.00
2022-09-07T00:50:02.749Z,0.90
2022-09-07T00:52:33.186Z,0.73
2022-09-07T00:55:06.306Z,0.90
2022-09-07T00:57:34.537Z,1.10
2022-09-07T01:00:03.079Z,0.80
2022-09-07T01:02:30.508Z,0.98
2022-09-07T01:05:09.643Z,1.00
2022-09-07T01:07:37.213Z,1.00
2022-09-07T01:10:04.650Z,1.10
2022-09-07T01:12:31.681Z,1.08
2022-09-07T01:14:59.531Z,1.17
2022-09-07T01:17:41.441Z,0.95
2022-09-07T01:20:11.803Z,1.20
2022-09-07T01:23:02.978Z,0.80
2022-09-07T01:25:42.219Z,1.00
2022-09-07T01:28:21.218Z,1.13
2022-09-07T01:31:03.945Z,1.15
2022-09-07T01:33:58.891Z,1.15
2022-09-07T01:37:03.606Z,1.25
2022-09-07T01:39:54.085Z,1.10
2022-09-07T01:42:26.349Z,0.80
2022-09-07T01:44:57.936Z,0.80
2022-09-07T01:47:31.409Z,0.70
2022-09-07T01:50:20.852Z,1.27
2022-09-07T01:52:54.096Z,0.70
2022-09-07T01:55:44.621Z,1.10
2022-09-07T01:58:23.391Z,1.35
2022-09-07T02:01:12.764Z,0.85
2022-09-07T02:03:55.358Z,0.80
2022-09-07T02:06:47.484Z,0.80
2022-09-07T02:09:31.860Z,0.98
2022-09-07T02:12:03.438Z,0.80
2022-09-07T02:14:40.910Z,0.90
2022-09-07T02:17:22.515Z,0.60
2022-09-07T02:19:54.354Z,0.60
2022-09-07T02:22:26.804Z,1.27
2022-09-07T02:24:58.200Z,0.60
2022-09-07T02:27:35.722Z,0.70
2022-09-07T02:30:03.088Z,0.87
2022-09-07T02:32:30.109Z,0.80
2022-09-07T02:34:57.157Z,0.90
2022-09-07T02:37:27.016Z,0.73
2022-09-07T02:39:54.622Z,0.93
2022-09-07T02:42:22.286Z,0.80
2022-09-07T02:44:50.370Z,1.17
2022-09-07T02:47:35.326Z,1.33
2022-09-07T02:50:29.353Z,0.80
2022-09-07T02:53:35.859Z,0.77
2022-09-07T02:56:02.852Z,1.25
2022-09-07T02:58:47.964Z,1.23
2022-09-07T03:01:28.938Z,1.08
2022-09-07T03:04:09.645Z,1.10
2022-09-07T03:06:41.011Z,0.90
2022-09-07T03:09:15.367Z,1.15
2022-09-07T03:11:43.809Z,1.00
2022-09-07T03:14:25.093Z,0.90
2022-09-07T03:16:56.132Z,1.10
2022-09-07T03:19:23.328Z,1.13
2022-09-07T03:21:50.303Z,1.00
2022-09-07T03:24:17.525Z,1.33
2022-09-07T03:26:48.677Z,1.40
2022-09-07T03:29:16.199Z,1.00
2022-09-07T03:31:43.332Z,1.33
2022-09-07T03:34:10.709Z,1.00
2022-09-07T03:36:37.706Z,1.10
2022-09-07T03:39:06.700Z,1.10
2022-09-07T03:41:34.311Z,1.35
2022-09-07T03:44:08.084Z,1.23
2022-09-07T03:46:35.454Z,1.27
2022-09-07T03:49:02.617Z,0.93
2022-09-07T03:51:29.761Z,1.00
2022-09-07T03:53:57.455Z,1.00
2022-09-07T03:56:25.117Z,1.58
2022-09-07T03:58:54.334Z,1.47
2022-09-07T04:01:24.644Z,1.25
2022-09-07T04:03:52.167Z,1.52
2022-09-07T04:06:19.958Z,1.40
2022-09-07T04:08:47.233Z,1.25
2022-09-07T04:11:16.974Z,1.20
2022-09-07T04:13:44.736Z,1.20
2022-09-07T04:16:19.347Z,1.00
2022-09-07T04:18:47.051Z,1.13
2022-09-07T04:21:14.278Z,0.90
2022-09-07T04:23:42.927Z,1.40
2022-09-07T04:26:30.959Z,1.23
2022-09-07T04:28:59.074Z,1.15
2022-09-07T04:31:26.284Z,1.23
2022-09-07T04:33:54.252Z,1.15
2022-09-07T04:36:21.696Z,0.80
2022-09-07T04:38:59.478Z,1.00
2022-09-07T04:41:28.042Z,1.05
2022-09-07T04:46:26.036Z,1.30
2022-09-07T04:48:58.225Z,1.45
2022-09-07T04:51:27.701Z,1.20
2022-09-07T04:53:57.025Z,1.05
2022-09-07T04:56:25.001Z,1.27
2022-09-07T04:58:52.388Z,1.10
2022-09-07T05:01:22.450Z,1.40
2022-09-07T05:03:50.431Z,1.30
2022-09-07T05:06:19.436Z,1.50
2022-09-07T05:08:50.917Z,1.50
2022-09-07T05:11:19.645Z,1.50
2022-09-07T05:13:46.635Z,1.40
2022-09-07T05:16:20.354Z,1.13
2022-09-07T05:18:52.865Z,1.30
2022-09-07T05:21:22.737Z,1.42
2022-09-07T05:23:54.175Z,1.27
2022-09-07T05:26:23.502Z,1.33
2022-09-07T05:28:52.175Z,1.77
2022-09-07T05:31:21.626Z,1.60
2022-09-07T05:36:41.879Z,1.90
2022-09-07T05:39:09.636Z,2.08
2022-09-07T05:41:37.101Z,2.03
2022-09-07T05:46:52.518Z,1.55
2022-09-07T05:49:19.501Z,1.90
2022-09-07T05:51:47.028Z,1.83
2022-09-07T05:54:14.307Z,2.38
2022-09-07T05:56:41.490Z,1.55
2022-09-07T05:59:08.561Z,1.70
2022-09-07T06:02:33.682Z,1.88
2022-09-07T06:05:03.507Z,2.17
2022-09-07T06:07:32.349Z,1.60
2022-09-07T06:12:49.106Z,2.10
2022-09-07T06:15:16.693Z,1.60
2022-09-07T06:17:43.687Z,1.60
2022-09-07T06:20:11.243Z,2.13
2022-09-07T06:22:38.757Z,1.75
2022-09-07T06:25:06.417Z,2.05
2022-09-07T06:27:33.495Z,2.07
2022-09-07T06:30:00.612Z,1.40
2022-09-07T06:32:43.301Z,1.65
2022-09-07T06:35:11.367Z,1.45
2022-09-07T06:37:38.821Z,2.20
2022-09-07T06:40:07.448Z,1.65
2022-09-07T06:42:34.564Z,1.98
2022-09-07T06:45:02.544Z,2.25
2022-09-07T06:47:29.585Z,2.38
2022-09-07T06:49:56.693Z,1.83
2022-09-07T06:52:23.855Z,2.33
2022-09-07T06:57:27.143Z,1.92
2022-09-07T06:59:54.324Z,1.80
2022-09-07T07:02:21.426Z,2.03
2022-09-07T07:04:49.595Z,1.92
2022-09-07T07:07:16.715Z,2.70
2022-09-07T07:09:43.745Z,2.53
2022-09-07T07:12:11.210Z,2.00
2022-09-07T07:14:42.681Z,2.20
2022-09-07T07:17:12.357Z,2.67
2022-09-07T07:19:39.473Z,2.78
2022-09-07T07:24:53.597Z,3.50
2022-09-07T07:27:22.077Z,3.30
2022-09-07T07:32:17.081Z,3.60
2022-09-07T07:34:44.157Z,3.40
2022-09-07T07:37:11.150Z,2.90
2022-09-07T07:42:25.898Z,3.92
2022-09-07T07:47:40.199Z,2.60
2022-09-07T07:55:44.173Z,2.30
2022-09-07T07:58:12.964Z,2.08
2022-09-07T08:03:25.564Z,2.22
2022-09-07T08:05:53.860Z,2.10
2022-09-07T08:08:23.353Z,1.98
2022-09-07T08:10:51.363Z,1.67
2022-09-07T08:13:19.311Z,1.70
2022-09-07T08:15:48.851Z,1.60
2022-09-07T08:18:18.185Z,1.95
2022-09-07T08:20:45.378Z,1.42
2022-09-07T08:23:12.359Z,1.80
2022-09-07T08:25:39.468Z,1.60
2022-09-07T08:28:06.676Z,1.73
2022-09-07T08:30:33.733Z,2.38
2022-09-07T08:33:00.791Z,2.00
2022-09-07T08:35:27.766Z,2.13
2022-09-07T08:37:54.766Z,2.30
2022-09-07T08:40:21.806Z,2.40
2022-09-07T08:43:15.669Z,1.88
2022-09-07T08:45:57.134Z,1.83
2022-09-07T08:48:33.328Z,1.60
2022-09-07T08:51:07.345Z,1.55
2022-09-07T08:53:39.624Z,1.65
2022-09-07T08:56:12.161Z,1.63
2022-09-07T08:58:49.155Z,1.55
2022-09-07T09:01:35.691Z,1.70
2022-09-07T09:04:19.021Z,1.40
2022-09-07T09:06:47.058Z,1.30
2022-09-07T09:09:47.057Z,1.58
2022-09-07T09:12:37.990Z,1.52
2022-09-07T09:15:26.552Z,1.20
2022-09-07T09:18:03.041Z,1.30
2022-09-07T09:20:44.771Z,1.25
2022-09-07T09:23:14.140Z,1.40
2022-09-07T09:25:55.526Z,1.33
2022-09-07T09:28:25.486Z,1.25
2022-09-07T09:30:54.881Z,1.42
2022-09-07T09:33:24.585Z,1.38
2022-09-07T09:35:54.430Z,1.75
2022-09-07T09:38:34.335Z,1.45
2022-09-07T09:41:08.835Z,1.20
2022-09-07T09:43:55.687Z,1.35
2022-09-07T09:46:35.340Z,1.10
2022-09-07T09:49:17.714Z,1.20
2022-09-07T09:54:41.373Z,2.00
2022-09-07T09:57:38.652Z,1.67
2022-09-07T10:00:11.534Z,1.50
2022-09-07T10:05:39.637Z,1.63
2022-09-07T10:08:17.965Z,1.48
2022-09-07T10:11:06.382Z,1.10
2022-09-07T10:14:05.563Z,1.30
2022-09-07T10:16:44.333Z,1.30
2022-09-07T10:19:36.634Z,1.10
2022-09-07T10:22:20.729Z,1.00
2022-09-07T10:24:47.798Z,1.30
2022-09-07T10:27:30.118Z,1.80
2022-09-07T10:29:57.629Z,1.35
2022-09-07T10:32:30.770Z,1.67
2022-09-07T10:35:05.282Z,1.63
2022-09-07T10:38:08.372Z,1.38
2022-09-07T10:40:44.207Z,1.70
2022-09-07T10:43:42.563Z,2.15
2022-09-07T10:49:33.860Z,1.60
2022-09-07T10:52:09.794Z,1.73
2022-09-07T10:54:42.390Z,1.45
2022-09-07T10:57:34.461Z,1.45
2022-09-07T11:00:14.753Z,1.30
2022-09-07T11:06:13.439Z,1.77
2022-09-07T11:09:18.098Z,1.58
2022-09-07T11:12:01.486Z,1.38
2022-09-07T11:14:34.801Z,1.40
2022-09-07T11:17:05.853Z,1.90
2022-09-07T11:19:56.184Z,1.20
2022-09-07T11:22:33.275Z,1.33
2022-09-07T11:28:01.807Z,1.42
2022-09-07T11:30:34.417Z,1.50
2022-09-07T11:33:12.892Z,1.55
2022-09-07T11:35:39.787Z,1.43
2022-09-07T11:38:33.610Z,1.20
2022-09-07T11:41:18.937Z,1.30
2022-09-07T11:44:02.044Z,1.33
2022-09-07T11:46:36.495Z,1.60
2022-09-07T11:49:07.272Z,1.20
2022-09-07T11:52:05.508Z,1.30
2022-09-07T11:54:53.345Z,1.33
2022-09-07T11:57:32.565Z,1.35
2022-09-07T12:00:17.301Z,1.42
2022-09-07T12:03:12.459Z,1.73
2022-09-07T12:05:51.444Z,1.20
2022-09-07T12:08:45.292Z,1.45
2022-09-07T12:11:24.370Z,1.15
2022-09-07T12:14:07.518Z,1.70
2022-09-07T12:16:53.116Z,0.98
2022-09-07T12:19:25.036Z,1.25
2022-09-07T12:21:51.992Z,1.13
2022-09-07T12:24:34.140Z,1.58
2022-09-07T12:27:02.722Z,1.55
2022-09-07T12:29:30.890Z,1.55
2022-09-07T12:32:53.150Z,1.40
2022-09-07T12:34:57.859Z,1.08
2022-09-07T12:37:35.753Z,1.20
2022-09-07T12:40:30.678Z,1.20
2022-09-07T12:43:12.862Z,1.05
2022-09-07T12:45:39.879Z,1.38
2022-09-07T12:48:16.017Z,1.15
2022-09-07T12:51:07.805Z,1.08
2022-09-07T12:53:52.097Z,1.13
2022-09-07T12:57:29.166Z,1.40
2022-09-07T12:59:41.144Z,0.90
2022-09-07T13:02:30.748Z,1.10
2022-09-07T13:05:06.340Z,1.13
2022-09-07T13:07:51.715Z,1.00
2022-09-07T13:10:28.086Z,1.08
2022-09-07T13:13:04.862Z,1.05
2022-09-07T13:15:38.871Z,1.00
2022-09-07T13:18:12.560Z,0.77
2022-09-07T13:20:41.574Z,1.02
2022-09-07T13:23:17.627Z,1.10
2022-09-07T13:25:48.378Z,1.17
2022-09-07T13:28:23.808Z,1.30
2022-09-07T13:31:11.141Z,1.25
2022-09-07T13:33:48.543Z,0.95
2022-09-07T13:36:25.852Z,0.90
2022-09-07T13:38:56.862Z,1.10
2022-09-07T13:41:32.152Z,1.02
2022-09-07T13:44:01.904Z,1.27
2022-09-07T13:46:34.715Z,1.08
2022-09-07T13:49:12.650Z,0.93
2022-09-07T13:51:57.203Z,0.85
2022-09-07T13:54:39.774Z,0.77
2022-09-07T13:57:39.396Z,0.93
2022-09-07T14:00:14.241Z,0.70
2022-09-07T14:02:42.357Z,0.80
2022-09-07T14:05:11.959Z,0.80
2022-09-07T14:07:46.003Z,0.90
2022-09-07T14:10:22.067Z,1.27
2022-09-07T14:12:51.785Z,1.30
2022-09-07T14:15:30.407Z,1.27
2022-09-07T14:18:07.372Z,1.33
2022-09-07T14:20:41.861Z,1.02
2022-09-07T14:23:19.489Z,0.80
2022-09-07T14:28:39.199Z,0.90
2022-09-07T14:31:11.733Z,0.90
2022-09-07T14:33:43.661Z,0.98
2022-09-07T14:36:39.314Z,0.90
2022-09-07T14:39:04.296Z,0.73
2022-09-07T14:41:34.737Z,0.70
2022-09-07T14:44:02.030Z,0.80
2022-09-07T14:46:34.403Z,0.70
2022-09-07T14:49:22.567Z,0.85
2022-09-07T14:54:30.864Z,1.20
2022-09-07T14:57:01.960Z,0.98
2022-09-07T14:59:49.527Z,0.77
2022-09-07T15:02:24.093Z,0.60
2022-09-07T15:05:23.273Z,0.80
2022-09-07T15:07:55.509Z,1.00
2022-09-07T15:10:23.702Z,0.80
2022-09-07T15:15:21.667Z,0.80
2022-09-07T15:17:49.489Z,0.73
2022-09-07T15:20:38.294Z,0.70
2022-09-07T15:23:24.133Z,1.17
2022-09-07T15:25:53.691Z,0.70
2022-09-07T15:34:11.808Z,0.73
2022-09-07T15:36:44.421Z,0.73
2022-09-07T15:39:21.136Z,1.00
2022-09-07T15:41:48.625Z,1.10
2022-09-07T15:44:17.368Z,0.95
2022-09-07T15:49:35.091Z,0.70
2022-09-07T15:52:05.848Z,0.80
2022-09-07T15:54:35.015Z,0.93
2022-09-07T15:59:50.744Z,0.93
2022-09-07T16:05:07.078Z,0.65
2022-09-07T16:10:21.333Z,0.70
2022-09-07T16:13:10.694Z,0.40
2022-09-07T16:15:35.363Z,0.70
2022-09-07T16:18:02.668Z,0.40
2022-09-07T16:20:32.683Z,0.50
2022-09-07T16:23:16.397Z,0.50
2022-09-07T16:25:56.571Z,0.80
2022-09-07T16:28:24.062Z,0.80
2022-09-07T16:30:51.211Z,1.23
2022-09-07T16:33:18.235Z,0.90
2022-09-07T16:35:59.865Z,0.90
2022-09-07T16:38:45.053Z,0.93
2022-09-07T16:41:20.880Z,0.80
2022-09-07T16:43:49.187Z,0.88
2022-09-07T16:46:19.101Z,0.80
2022-09-07T16:48:46.248Z,0.70
2022-09-07T16:51:16.449Z,0.60
2022-09-07T16:53:43.815Z,0.77
2022-09-07T16:56:13.911Z,0.60
2022-09-07T16:58:43.087Z,0.65
2022-09-07T17:01:15.617Z,0.90
2022-09-07T17:03:43.519Z,0.73
2022-09-07T17:06:13.276Z,0.95
2022-09-07T17:08:41.019Z,1.00
2022-09-07T17:11:16.133Z,0.90
2022-09-07T17:13:44.544Z,1.00
2022-09-07T17:21:33.851Z,1.30
2022-09-07T17:24:04.330Z,1.38
2022-09-07T17:26:32.276Z,1.20
2022-09-07T17:29:00.900Z,1.13
2022-09-07T17:34:21.549Z,1.15
2022-09-07T17:36:48.881Z,1.27
2022-09-07T17:39:17.656Z,1.10
2022-09-07T17:41:46.551Z,0.93
2022-09-07T17:44:13.526Z,0.80
2022-09-07T17:46:40.523Z,0.85
2022-09-07T17:49:10.338Z,0.75
2022-09-07T17:51:38.043Z,0.80
2022-09-07T17:54:10.866Z,0.63
2022-09-07T17:56:39.995Z,0.65
2022-09-07T18:01:55.110Z,0.75
2022-09-07T18:04:22.859Z,0.70
2022-09-07T18:06:49.971Z,0.70
2022-09-07T18:09:17.662Z,0.68
2022-09-07T18:11:46.391Z,0.90
2022-09-07T18:14:15.363Z,0.80
2022-09-07T18:16:45.121Z,0.70
2022-09-07T18:19:13.304Z,0.77
2022-09-07T18:21:43.076Z,0.82
2022-09-07T18:24:17.052Z,0.90
2022-09-07T18:26:50.223Z,0.55
2022-09-07T18:29:28.714Z,0.60
2022-09-07T18:31:57.089Z,0.60
2022-09-07T18:34:24.799Z,0.68
2022-09-07T18:37:04.267Z,0.50
2022-09-07T18:39:35.673Z,0.60
2022-09-07T18:42:03.133Z,0.50
2022-09-07T18:47:27.969Z,0.60
2022-09-07T18:49:56.024Z,0.55
2022-09-07T18:55:10.404Z,0.40
2022-09-07T18:57:37.729Z,0.77
2022-09-07T19:00:07.531Z,0.60
2022-09-07T19:02:35.238Z,0.35
2022-09-07T19:07:49.376Z,0.63
2022-09-07T19:10:17.722Z,0.70
2022-09-07T19:15:13.574Z,0.60
2022-09-07T19:17:40.632Z,0.73
2022-09-07T19:20:07.959Z,1.00
2022-09-07T19:22:34.884Z,0.95
2022-09-07T19:25:02.018Z,0.68
2022-09-07T19:27:29.189Z,0.80
2022-09-07T19:29:56.113Z,1.00
2022-09-07T19:32:23.087Z,0.70
2022-09-07T19:34:54.478Z,0.70
2022-09-07T19:37:25.765Z,0.80
2022-09-07T19:39:56.320Z,0.98
2022-09-07T19:42:24.424Z,1.05
2022-09-07T19:44:52.392Z,0.70
2022-09-07T19:47:25.935Z,0.70
2022-09-07T19:49:53.617Z,0.68
2022-09-07T19:52:23.371Z,0.70
2022-09-07T19:54:50.613Z,1.00
2022-09-07T19:57:17.920Z,0.70
2022-09-07T19:59:45.667Z,0.60
2022-09-07T20:02:13.395Z,0.68
2022-09-07T20:04:40.527Z,0.70
2022-09-07T20:07:07.477Z,0.82
2022-09-07T20:09:34.634Z,0.60
2022-09-07T20:12:03.781Z,0.85
2022-09-07T20:14:30.810Z,0.65
2022-09-07T20:16:57.903Z,0.90
2022-09-07T20:19:26.425Z,0.80
2022-09-07T20:24:24.835Z,1.02
2022-09-07T20:26:51.790Z,1.40
2022-09-07T20:29:34.102Z,1.30
2022-09-07T20:32:02.147Z,1.10
2022-09-07T20:34:29.506Z,0.90
2022-09-07T20:36:57.099Z,0.80
2022-09-07T20:39:24.173Z,0.67
2022-09-07T20:41:51.706Z,0.63
2022-09-07T20:44:18.985Z,0.60
2022-09-07T20:46:54.592Z,0.70
2022-09-07T20:49:21.878Z,0.60
2022-09-07T20:51:49.442Z,0.65
2022-09-07T20:54:18.796Z,0.53
2022-09-07T20:56:45.700Z,0.65
2022-09-07T20:59:16.682Z,0.60
2022-09-07T21:01:43.853Z,0.82
2022-09-07T21:04:12.347Z,0.60
2022-09-07T21:09:09.561Z,0.40
2022-09-07T21:11:36.864Z,0.65
2022-09-07T21:14:11.429Z,0.63
2022-09-07T21:16:39.490Z,0.60
2022-09-07T21:19:09.099Z,0.70
2022-09-07T21:21:39.497Z,0.55
2022-09-07T21:24:14.314Z,0.57
2022-09-07T21:26:41.654Z,0.40
2022-09-07T21:29:13.745Z,0.68
2022-09-07T21:31:40.798Z,0.80
2022-09-07T21:34:09.049Z,0.75
2022-09-07T21:36:36.120Z,0.50
2022-09-07T21:39:04.294Z,0.50
2022-09-07T21:41:31.479Z,0.55
2022-09-07T21:44:00.958Z,0.40
2022-09-07T21:46:30.474Z,0.50
2022-09-07T21:48:59.265Z,0.40
2022-09-07T21:51:27.315Z,0.47
2022-09-07T21:53:56.733Z,0.40
2022-09-07T21:56:24.335Z,0.60
2022-09-07T21:58:55.660Z,0.60
2022-09-07T22:01:24.110Z,0.47
2022-09-07T22:06:32.429Z,0.60
2022-09-07T22:09:00.476Z,0.70
2022-09-07T22:11:28.761Z,0.60
2022-09-07T22:13:57.940Z,0.45
2022-09-07T22:16:24.896Z,0.60
2022-09-07T22:18:52.128Z,0.60
2022-09-07T22:21:22.340Z,0.50
2022-09-07T22:23:52.578Z,0.77
2022-09-07T22:26:23.544Z,0.65
2022-09-07T22:28:50.800Z,0.63
2022-09-07T22:31:24.380Z,0.50
2022-09-07T22:33:52.671Z,0.52
2022-09-07T22:36:24.609Z,0.88
2022-09-07T22:38:54.975Z,0.70
2022-09-07T22:41:24.947Z,0.70
2022-09-07T22:43:52.033Z,0.85
2022-09-07T22:46:20.483Z,0.60
2022-09-07T22:51:15.183Z,0.80
2022-09-07T22:53:43.541Z,0.60
2022-09-07T22:56:16.764Z,0.60
2022-09-07T22:58:51.852Z,0.40
2022-09-07T23:01:20.951Z,0.50
2022-09-07T23:03:48.363Z,0.50
2022-09-07T23:06:27.629Z,0.57
2022-09-07T23:08:57.593Z,0.60
2022-09-07T23:11:25.590Z,0.70
2022-09-07T23:13:58.374Z,0.45
2022-09-07T23:16:26.385Z,0.60
2022-09-07T23:18:54.603Z,0.60
2022-09-07T23:21:21.968Z,0.52
2022-09-07T23:23:55.948Z,0.50
2022-09-07T23:26:24.872Z,0.50
2022-09-07T23:28:56.940Z,0.70
2022-09-07T23:31:25.547Z,0.60
2022-09-07T23:33:52.898Z,0.70
2022-09-07T23:36:20.522Z,0.70
2022-09-07T23:38:47.594Z,0.80
2022-09-07T23:41:14.764Z,0.60
2022-09-07T23:43:41.921Z,0.60
2022-09-07T23:46:10.727Z,0.80
2022-09-07T23:48:37.733Z,0.60
2022-09-07T23:51:05.836Z,0.90
2022-09-07T23:53:33.276Z,0.88
2022-09-07T23:56:00.366Z,1.10
2022-09-07T23:58:27.267Z,0.90
